HPH weather

Cat Bi International Airport
Haiphong, Hai Duong Province, Vietnam

Public forecast

Using degrees Celsius for public forecast. Weather courtesy of forecast.io.

METAR (pilot weather report)

Closest report is Noi Bai International Airport, 56.8 nm (105.2 km) WNW. Retrieved 2019/03/26 00:00 UTC (11 minutes ago):

VVNB 260000Z 07004KT 030V100 1600 -DZ BR SCT004 BKN011 18/18 Q1018 NOSIG

TAF (pilot weather forecast)

Forecast is more than 12 hours old.

Retrieved 2019/03/25 00:00 UTC (1 day ago):

TAF VVCI 252300Z 2600/2624 09005KT 3000 RA BR BKN006 OVC030 BECMG 2601/2602 6000 NSW SCT013 BKN040 BECMG 2615/2616 3500 BR BECMG 2620/2621 1500 DZ BR BKN004 OVC020